createdAt,value
2018-01-19T00:00:52.746Z,995.99
2018-01-19T00:02:45.853Z,996.02
2018-01-19T00:03:45.857Z,996.07
2018-01-19T00:05:54.373Z,996.08
2018-01-19T00:06:54.377Z,996.09
2018-01-19T00:08:47.533Z,996.15
2018-01-19T00:09:47.537Z,996.17
2018-01-19T00:11:39.734Z,996.21
2018-01-19T00:12:39.736Z,996.21
2018-01-19T00:14:32.912Z,996.23
2018-01-19T00:15:32.914Z,996.26
2018-01-19T00:17:25.089Z,996.25
2018-01-19T00:18:25.145Z,996.22
2018-01-19T00:20:17.345Z,996.28
2018-01-19T00:21:17.342Z,996.28
2018-01-19T00:23:10.543Z,996.33
2018-01-19T00:24:10.589Z,996.36
2018-01-19T00:26:02.696Z,996.35
2018-01-19T00:27:02.713Z,996.36
2018-01-19T00:28:54.919Z,996.39
2018-01-19T00:29:54.925Z,996.41
2018-01-19T00:31:48.078Z,996.42
2018-01-19T00:32:48.091Z,996.49
2018-01-19T00:34:41.233Z,996.49
2018-01-19T00:35:41.231Z,996.51
2018-01-19T00:37:33.384Z,996.53
2018-01-19T00:38:33.377Z,996.56
2018-01-19T00:40:26.516Z,996.55
2018-01-19T00:41:26.527Z,996.57
2018-01-19T00:43:18.690Z,996.55
2018-01-19T00:44:18.674Z,996.55
2018-01-19T00:46:10.828Z,996.57
2018-01-19T00:47:10.843Z,996.59
2018-01-19T00:49:16.349Z,996.57
2018-01-19T00:50:16.350Z,996.63
2018-01-19T00:52:09.488Z,996.59
2018-01-19T00:53:09.508Z,996.68
2018-01-19T00:55:01.754Z,996.63
2018-01-19T00:56:01.753Z,996.64
2018-01-19T00:57:54.903Z,996.70
2018-01-19T00:58:54.942Z,996.66
2018-01-19T01:00:48.051Z,996.71
2018-01-19T01:01:48.072Z,996.72
2018-01-19T01:03:41.228Z,996.74
2018-01-19T01:04:41.242Z,996.75
2018-01-19T01:06:34.373Z,996.84
2018-01-19T01:07:34.390Z,996.83
2018-01-19T01:09:44.920Z,996.88
2018-01-19T01:10:44.925Z,996.91
2018-01-19T01:12:54.405Z,996.94
2018-01-19T01:13:54.420Z,996.96
2018-01-19T01:16:04.011Z,996.98
2018-01-19T01:17:04.005Z,996.98
2018-01-19T01:18:57.226Z,996.96
2018-01-19T01:19:57.222Z,997.02
2018-01-19T01:21:50.360Z,997.00
2018-01-19T01:22:50.384Z,997.03
2018-01-19T01:24:43.545Z,997.02
2018-01-19T01:25:43.555Z,997.08
2018-01-19T01:27:36.680Z,997.03
2018-01-19T01:28:36.692Z,997.09
2018-01-19T01:30:29.885Z,997.10
2018-01-19T01:31:29.853Z,997.13
2018-01-19T01:33:23.019Z,997.10
2018-01-19T01:34:23.013Z,997.14
2018-01-19T01:36:16.159Z,997.19
2018-01-19T01:37:16.170Z,997.19
2018-01-19T01:39:09.359Z,997.27
2018-01-19T01:40:09.359Z,997.24
2018-01-19T01:42:02.558Z,997.25
2018-01-19T01:43:02.573Z,997.27
2018-01-19T01:44:55.752Z,997.24
2018-01-19T01:45:55.720Z,997.23
2018-01-19T01:47:48.860Z,997.22
2018-01-19T01:48:48.872Z,997.29
2018-01-19T01:50:42.148Z,997.30
2018-01-19T01:51:42.058Z,997.29
2018-01-19T01:53:35.200Z,997.32
2018-01-19T01:54:35.201Z,997.35
2018-01-19T01:56:28.437Z,997.36
2018-01-19T01:57:28.357Z,997.41
2018-01-19T01:59:21.497Z,997.43
2018-01-19T02:00:21.505Z,997.44
2018-01-19T02:02:14.636Z,997.45
2018-01-19T02:03:14.648Z,997.47
2018-01-19T02:05:07.824Z,997.46
2018-01-19T02:06:07.826Z,997.45
2018-01-19T02:08:00.980Z,997.50
2018-01-19T02:09:00.996Z,997.53
2018-01-19T02:10:54.174Z,997.50
2018-01-19T02:11:54.148Z,997.52
2018-01-19T02:13:47.292Z,997.57
2018-01-19T02:14:47.311Z,997.57
2018-01-19T02:16:40.479Z,997.60
2018-01-19T02:17:40.477Z,997.61
2018-01-19T02:19:33.724Z,997.59
2018-01-19T02:20:33.773Z,997.59
2018-01-19T02:22:26.879Z,997.58
2018-01-19T02:23:26.892Z,997.62
2018-01-19T02:25:20.031Z,997.60
2018-01-19T02:26:20.037Z,997.60
2018-01-19T02:28:13.195Z,997.60
2018-01-19T02:29:13.211Z,997.61
2018-01-19T02:31:06.364Z,997.62
2018-01-19T02:32:06.348Z,997.64
2018-01-19T02:33:59.492Z,997.67
2018-01-19T02:34:59.506Z,997.70
2018-01-19T02:36:52.675Z,997.70
2018-01-19T02:37:52.680Z,997.78
2018-01-19T02:39:45.839Z,997.77
2018-01-19T02:40:45.832Z,997.77
2018-01-19T02:42:39.005Z,997.79
2018-01-19T02:43:39.012Z,997.80
2018-01-19T02:45:32.190Z,997.77
2018-01-19T02:46:32.197Z,997.79
2018-01-19T02:48:25.342Z,997.86
2018-01-19T02:49:25.352Z,997.80
2018-01-19T02:51:18.590Z,997.81
2018-01-19T02:52:18.575Z,997.81
2018-01-19T02:54:11.708Z,997.84
2018-01-19T02:55:11.735Z,997.83
2018-01-19T02:57:04.885Z,997.88
2018-01-19T02:58:04.890Z,997.89
2018-01-19T02:59:58.044Z,997.91
2018-01-19T03:00:58.041Z,997.89
2018-01-19T03:02:51.190Z,997.87
2018-01-19T03:03:51.201Z,997.89
2018-01-19T03:05:44.361Z,997.90
2018-01-19T03:06:44.367Z,997.89
2018-01-19T03:08:37.511Z,997.95
2018-01-19T03:09:37.535Z,997.95
2018-01-19T03:11:30.671Z,997.92
2018-01-19T03:12:30.681Z,997.93
2018-01-19T03:14:23.831Z,997.91
2018-01-19T03:15:23.847Z,997.96
2018-01-19T03:17:16.996Z,997.93
2018-01-19T03:18:17.000Z,997.93
2018-01-19T03:20:10.288Z,997.98
2018-01-19T03:21:10.155Z,998.02
2018-01-19T03:23:03.296Z,998.04
2018-01-19T03:24:03.309Z,998.02
2018-01-19T03:25:56.480Z,998.04
2018-01-19T03:26:56.470Z,998.08
2018-01-19T03:28:49.610Z,998.07
2018-01-19T03:29:49.629Z,998.10
2018-01-19T03:31:59.143Z,998.07
2018-01-19T03:32:59.140Z,998.05
2018-01-19T03:35:07.639Z,998.07
2018-01-19T03:36:07.648Z,998.08
2018-01-19T03:38:00.804Z,998.11
2018-01-19T03:39:00.807Z,998.15
2018-01-19T03:40:54.009Z,998.17
2018-01-19T03:41:54.013Z,998.18
2018-01-19T03:43:47.160Z,998.22
2018-01-19T03:44:47.175Z,998.23
2018-01-19T03:46:40.340Z,998.24
2018-01-19T03:47:40.348Z,998.26
2018-01-19T03:49:33.480Z,998.26
2018-01-19T03:50:33.496Z,998.30
2018-01-19T03:52:26.646Z,998.30
2018-01-19T03:53:26.656Z,998.32
2018-01-19T03:55:19.799Z,998.30
2018-01-19T03:56:19.807Z,998.30
2018-01-19T03:58:12.951Z,998.35
2018-01-19T03:59:12.951Z,998.38
2018-01-19T04:01:06.124Z,998.42
2018-01-19T04:02:06.119Z,998.43
2018-01-19T04:03:59.271Z,998.43
2018-01-19T04:04:59.271Z,998.48
2018-01-19T04:06:52.419Z,998.46
2018-01-19T04:07:52.426Z,998.51
2018-01-19T04:09:45.680Z,998.50
2018-01-19T04:10:45.698Z,998.47
2018-01-19T04:12:38.845Z,998.48
2018-01-19T04:13:38.846Z,998.48
2018-01-19T04:15:32.132Z,998.49
2018-01-19T04:16:32.018Z,998.53
2018-01-19T04:18:25.153Z,998.57
2018-01-19T04:19:25.159Z,998.57
2018-01-19T04:21:18.367Z,998.56
2018-01-19T04:22:18.332Z,998.56
2018-01-19T04:24:11.469Z,998.58
2018-01-19T04:25:11.492Z,998.62
2018-01-19T04:27:04.645Z,998.70
2018-01-19T04:28:04.640Z,998.71
2018-01-19T04:29:57.787Z,998.74
2018-01-19T04:30:57.801Z,998.77
2018-01-19T04:32:50.960Z,998.79
2018-01-19T04:33:50.963Z,998.75
2018-01-19T04:35:44.107Z,998.78
2018-01-19T04:36:44.137Z,998.79
2018-01-19T04:38:37.281Z,998.79
2018-01-19T04:39:37.280Z,998.80
2018-01-19T04:41:30.440Z,998.77
2018-01-19T04:42:30.441Z,998.80
2018-01-19T04:44:23.601Z,998.81
2018-01-19T04:45:23.616Z,998.83
2018-01-19T04:47:16.784Z,998.84
2018-01-19T04:48:16.782Z,998.82
2018-01-19T04:50:09.931Z,998.88
2018-01-19T04:51:09.951Z,998.86
2018-01-19T04:53:03.102Z,998.89
2018-01-19T04:54:03.104Z,998.92
2018-01-19T04:55:55.256Z,998.91
2018-01-19T04:56:55.267Z,998.91
2018-01-19T04:58:48.423Z,998.92
2018-01-19T04:59:48.430Z,998.94
2018-01-19T05:01:41.592Z,998.94
2018-01-19T05:02:41.588Z,998.99
2018-01-19T05:04:34.721Z,998.95
2018-01-19T05:05:34.738Z,998.99
2018-01-19T05:07:27.937Z,999.01
2018-01-19T05:08:27.935Z,999.04
2018-01-19T05:10:21.113Z,999.01
2018-01-19T05:11:21.105Z,999.04
2018-01-19T05:13:14.254Z,999.08
2018-01-19T05:14:14.261Z,999.09
2018-01-19T05:16:07.394Z,999.06
2018-01-19T05:17:07.411Z,999.07
2018-01-19T05:19:00.692Z,999.17
2018-01-19T05:20:00.566Z,999.17
2018-01-19T05:21:53.730Z,999.17
2018-01-19T05:22:53.727Z,999.16
2018-01-19T05:24:46.875Z,999.16
2018-01-19T05:25:46.889Z,999.19
2018-01-19T05:27:40.043Z,999.20
2018-01-19T05:28:40.056Z,999.20
2018-01-19T05:30:33.218Z,999.23
2018-01-19T05:31:33.231Z,999.22
2018-01-19T05:33:26.468Z,999.26
2018-01-19T05:34:26.475Z,999.26
2018-01-19T05:36:19.614Z,999.28
2018-01-19T05:37:19.634Z,999.26
2018-01-19T05:39:12.799Z,999.27
2018-01-19T05:40:12.802Z,999.29
2018-01-19T05:42:05.931Z,999.29
2018-01-19T05:43:05.954Z,999.31
2018-01-19T05:44:59.121Z,999.36
2018-01-19T05:45:59.112Z,999.38
2018-01-19T05:47:52.264Z,999.36
2018-01-19T05:48:52.269Z,999.41
2018-01-19T05:50:45.406Z,999.43
2018-01-19T05:51:45.420Z,999.45
2018-01-19T05:53:37.605Z,999.47
2018-01-19T05:54:37.592Z,999.49
2018-01-19T05:56:30.757Z,999.48
2018-01-19T05:57:30.776Z,999.49
2018-01-19T05:59:23.982Z,999.58
2018-01-19T06:00:23.976Z,999.53
2018-01-19T06:02:16.159Z,999.55
2018-01-19T06:03:16.178Z,999.56
2018-01-19T06:05:08.349Z,999.61
2018-01-19T06:06:08.352Z,999.59
2018-01-19T06:08:01.502Z,999.56
2018-01-19T06:09:01.500Z,999.58
2018-01-19T06:10:53.645Z,999.64
2018-01-19T06:11:53.666Z,999.62
2018-01-19T06:13:56.529Z,999.68
2018-01-19T06:14:56.662Z,999.73
2018-01-19T06:16:49.693Z,999.75
2018-01-19T06:17:49.698Z,999.75
2018-01-19T06:19:42.841Z,999.80
2018-01-19T06:20:42.842Z,999.82
2018-01-19T06:22:36.085Z,999.82
2018-01-19T06:23:35.997Z,999.86
2018-01-19T06:25:29.186Z,999.84
2018-01-19T06:26:29.168Z,999.83
2018-01-19T06:28:22.306Z,999.87
2018-01-19T06:29:22.315Z,999.87
2018-01-19T06:31:15.792Z,999.91
2018-01-19T06:32:15.610Z,999.88
2018-01-19T06:34:08.644Z,999.94
2018-01-19T06:35:08.645Z,999.96
2018-01-19T06:37:01.791Z,1000.00
2018-01-19T06:38:01.815Z,1000.04
2018-01-19T06:39:54.949Z,1000.04
2018-01-19T06:40:54.944Z,1000.05
2018-01-19T06:42:48.100Z,1000.10
2018-01-19T06:43:48.115Z,1000.07
2018-01-19T06:45:41.270Z,1000.13
2018-01-19T06:46:41.263Z,1000.17
2018-01-19T06:48:34.422Z,1000.16
2018-01-19T06:49:34.437Z,1000.14
2018-01-19T06:51:27.581Z,1000.17
2018-01-19T06:52:27.592Z,1000.18
2018-01-19T06:54:20.792Z,1000.20
2018-01-19T06:55:20.741Z,1000.19
2018-01-19T06:57:13.885Z,1000.24
2018-01-19T06:58:13.899Z,1000.28
2018-01-19T07:00:07.058Z,1000.29
2018-01-19T07:01:07.055Z,1000.34
2018-01-19T07:03:00.239Z,1000.33
2018-01-19T07:04:00.244Z,1000.37
2018-01-19T07:05:53.411Z,1000.35
2018-01-19T07:06:53.408Z,1000.35
2018-01-19T07:08:46.575Z,1000.39
2018-01-19T07:09:46.565Z,1000.39
2018-01-19T07:11:39.738Z,1000.41
2018-01-19T07:12:39.737Z,1000.40
2018-01-19T07:14:32.958Z,1000.38
2018-01-19T07:15:32.943Z,1000.41
2018-01-19T07:17:26.192Z,1000.44
2018-01-19T07:18:26.193Z,1000.44
2018-01-19T07:20:30.216Z,1000.49
2018-01-19T07:21:30.069Z,1000.48
2018-01-19T07:23:35.552Z,1000.49
2018-01-19T07:24:35.567Z,1000.50
2018-01-19T07:26:27.739Z,1000.55
2018-01-19T07:27:27.736Z,1000.57
2018-01-19T07:29:33.280Z,1000.59
2018-01-19T07:30:33.264Z,1000.60
2018-01-19T07:32:26.454Z,1000.69
2018-01-19T07:33:26.450Z,1000.71
2018-01-19T07:35:18.669Z,1000.74
2018-01-19T07:36:18.668Z,1000.73
2018-01-19T07:38:10.848Z,1000.76
2018-01-19T07:39:10.847Z,1000.78
2018-01-19T07:41:04.001Z,1000.81
2018-01-19T07:42:04.004Z,1000.81
2018-01-19T07:43:57.227Z,1000.84
2018-01-19T07:44:57.205Z,1000.87
2018-01-19T07:46:50.356Z,1000.91
2018-01-19T07:47:50.360Z,1000.88
2018-01-19T07:49:43.637Z,1000.90
2018-01-19T07:50:43.638Z,1000.93
2018-01-19T07:52:36.949Z,1000.93
2018-01-19T07:53:36.897Z,1000.92
2018-01-19T07:55:30.118Z,1000.94
2018-01-19T07:56:30.115Z,1000.95
2018-01-19T07:58:23.319Z,1000.98
2018-01-19T07:59:23.311Z,1001.01
2018-01-19T08:01:16.465Z,1001.05
2018-01-19T08:02:17.220Z,1001.04
2018-01-19T08:04:09.632Z,1001.12
2018-01-19T08:05:09.634Z,1001.15
2018-01-19T08:07:02.865Z,1001.14
2018-01-19T08:08:02.875Z,1001.14
2018-01-19T08:09:56.053Z,1001.16
2018-01-19T08:10:56.050Z,1001.17
2018-01-19T08:12:49.186Z,1001.25
2018-01-19T08:13:49.208Z,1001.27
2018-01-19T08:15:42.347Z,1001.27
2018-01-19T08:16:42.348Z,1001.30
2018-01-19T08:18:35.506Z,1001.35
2018-01-19T08:19:35.511Z,1001.33
2018-01-19T08:21:28.691Z,1001.40
2018-01-19T08:22:28.696Z,1001.41
2018-01-19T08:24:35.284Z,1001.35
2018-01-19T08:25:35.259Z,1001.43
2018-01-19T08:27:27.603Z,1001.44
2018-01-19T08:28:27.613Z,1001.47
2018-01-19T08:30:19.850Z,1001.55
2018-01-19T08:31:19.838Z,1001.55
2018-01-19T08:33:13.053Z,1001.58
2018-01-19T08:34:13.069Z,1001.59
2018-01-19T08:36:06.268Z,1001.58
2018-01-19T08:37:06.244Z,1001.67
2018-01-19T08:38:59.392Z,1001.64
2018-01-19T08:39:59.409Z,1001.66
2018-01-19T08:41:51.588Z,1001.66
2018-01-19T08:42:51.580Z,1001.72
2018-01-19T08:44:44.737Z,1001.72
2018-01-19T08:45:44.762Z,1001.74
2018-01-19T08:47:37.977Z,1001.70
2018-01-19T08:48:38.004Z,1001.72
2018-01-19T08:50:31.216Z,1001.77
2018-01-19T08:51:31.216Z,1001.79
2018-01-19T08:53:24.365Z,1001.78
2018-01-19T08:54:24.383Z,1001.79
2018-01-19T08:56:17.536Z,1001.83
2018-01-19T08:57:17.532Z,1001.83
2018-01-19T08:59:10.681Z,1001.87
2018-01-19T09:00:10.697Z,1001.86
2018-01-19T09:02:03.869Z,1001.89
2018-01-19T09:03:03.855Z,1001.93
2018-01-19T09:04:57.005Z,1001.92
2018-01-19T09:05:57.015Z,1001.97
2018-01-19T09:07:50.178Z,1001.95
2018-01-19T09:08:50.184Z,1001.98
2018-01-19T09:10:43.322Z,1002.00
2018-01-19T09:11:43.328Z,1002.01
2018-01-19T09:13:36.477Z,1002.10
2018-01-19T09:14:36.489Z,1002.10
2018-01-19T09:16:29.778Z,1002.14
2018-01-19T09:17:29.777Z,1002.12
2018-01-19T09:19:22.991Z,1002.15
2018-01-19T09:20:23.007Z,1002.14
2018-01-19T09:22:16.168Z,1002.19
2018-01-19T09:23:16.161Z,1002.18
2018-01-19T09:25:09.566Z,1002.23
2018-01-19T09:26:09.579Z,1002.19
2018-01-19T09:28:02.807Z,1002.25
2018-01-19T09:29:02.786Z,1002.33
2018-01-19T09:30:55.941Z,1002.32
2018-01-19T09:31:55.974Z,1002.32
2018-01-19T09:33:49.127Z,1002.38
2018-01-19T09:34:49.117Z,1002.35
2018-01-19T09:36:42.271Z,1002.44
2018-01-19T09:37:42.268Z,1002.46
2018-01-19T09:39:35.405Z,1002.52
2018-01-19T09:40:35.425Z,1002.52
2018-01-19T09:42:28.584Z,1002.57
2018-01-19T09:43:28.582Z,1002.55
2018-01-19T09:45:21.720Z,1002.59
2018-01-19T09:46:21.738Z,1002.62
2018-01-19T09:48:14.888Z,1002.65
2018-01-19T09:49:14.898Z,1002.63
2018-01-19T09:51:08.059Z,1002.66
2018-01-19T09:52:08.060Z,1002.63
2018-01-19T09:54:01.205Z,1002.66
2018-01-19T09:55:01.215Z,1002.72
2018-01-19T09:56:54.388Z,1002.72
2018-01-19T09:57:54.372Z,1002.71
2018-01-19T09:59:47.514Z,1002.66
2018-01-19T10:00:47.533Z,1002.70
2018-01-19T10:02:40.721Z,1002.72
2018-01-19T10:03:40.688Z,1002.74
2018-01-19T10:05:33.839Z,1002.72
2018-01-19T10:06:33.848Z,1002.70
2018-01-19T10:08:27.014Z,1002.68
2018-01-19T10:09:27.003Z,1002.63
2018-01-19T10:11:20.180Z,1002.66
2018-01-19T10:12:20.166Z,1002.72
2018-01-19T10:14:13.313Z,1002.74
2018-01-19T10:15:13.320Z,1002.76
2018-01-19T10:17:06.479Z,1002.76
2018-01-19T10:18:06.492Z,1002.76
2018-01-19T10:19:59.647Z,1002.83
2018-01-19T10:20:59.644Z,1002.82
2018-01-19T10:22:52.809Z,1002.81
2018-01-19T10:23:52.809Z,1002.80
2018-01-19T10:25:45.955Z,1002.82
2018-01-19T10:26:45.980Z,1002.79
2018-01-19T10:28:39.225Z,1002.85
2018-01-19T10:29:39.232Z,1002.86
2018-01-19T10:31:32.389Z,1002.89
2018-01-19T10:32:32.403Z,1002.91
2018-01-19T10:34:25.560Z,1002.90
2018-01-19T10:35:25.572Z,1002.91
2018-01-19T10:37:18.708Z,1002.93
2018-01-19T10:38:18.771Z,1002.95
2018-01-19T10:40:11.877Z,1002.99
2018-01-19T10:41:11.878Z,1002.98
2018-01-19T10:43:05.116Z,1003.00
2018-01-19T10:44:05.153Z,1003.01
2018-01-19T10:45:58.396Z,1003.03
2018-01-19T10:46:58.387Z,1003.03
2018-01-19T10:48:51.534Z,1003.03
2018-01-19T10:49:51.559Z,1003.06
2018-01-19T10:51:44.756Z,1003.08
2018-01-19T10:52:44.742Z,1002.99
2018-01-19T10:54:37.885Z,1003.00
2018-01-19T10:55:37.904Z,1003.01
2018-01-19T10:57:31.125Z,1003.02
2018-01-19T10:58:31.118Z,1002.99
2018-01-19T11:00:24.263Z,1003.01
2018-01-19T11:01:24.302Z,1003.00
2018-01-19T11:03:17.541Z,1002.98
2018-01-19T11:04:17.534Z,1002.96
2018-01-19T11:06:10.701Z,1003.00
2018-01-19T11:07:10.695Z,1003.05
2018-01-19T11:09:03.881Z,1003.07
2018-01-19T11:10:03.860Z,1003.03
2018-01-19T11:11:57.003Z,1003.08
2018-01-19T11:12:57.018Z,1003.11
2018-01-19T11:14:50.152Z,1003.07
2018-01-19T11:15:50.170Z,1003.09
2018-01-19T11:17:43.317Z,1003.06
2018-01-19T11:18:43.330Z,1003.04
2018-01-19T11:20:36.465Z,1003.02
2018-01-19T11:21:36.485Z,1002.99
2018-01-19T11:23:29.676Z,1002.97
2018-01-19T11:24:29.655Z,1002.97
2018-01-19T11:26:22.829Z,1002.95
2018-01-19T11:27:22.820Z,1002.97
2018-01-19T11:29:16.101Z,1002.96
2018-01-19T11:30:16.065Z,1002.96
2018-01-19T11:36:04.737Z,1002.99
2018-01-19T11:37:04.838Z,1002.95
2018-01-19T11:38:57.896Z,1002.94
2018-01-19T11:39:57.900Z,1002.97
2018-01-19T11:41:51.066Z,1003.00
2018-01-19T11:42:51.065Z,1002.99
2018-01-19T11:44:44.216Z,1003.03
2018-01-19T11:45:44.215Z,1003.03
2018-01-19T11:47:37.372Z,1003.06
2018-01-19T11:48:37.370Z,1003.07
2018-01-19T11:50:30.520Z,1003.08
2018-01-19T11:51:30.539Z,1003.08
2018-01-19T11:53:23.686Z,1003.08
2018-01-19T11:54:23.693Z,1003.10
2018-01-19T11:56:16.839Z,1003.11
2018-01-19T11:57:16.854Z,1003.11
2018-01-19T11:59:10.018Z,1003.13
2018-01-19T12:00:10.017Z,1003.18
2018-01-19T12:02:03.184Z,1003.18
2018-01-19T12:03:03.175Z,1003.17
2018-01-19T12:04:56.357Z,1003.17
2018-01-19T12:05:56.370Z,1003.20
2018-01-19T12:07:49.529Z,1003.23
2018-01-19T12:08:49.522Z,1003.20
2018-01-19T12:10:53.377Z,1003.21
2018-01-19T12:11:53.399Z,1003.27
2018-01-19T12:13:46.542Z,1003.25
2018-01-19T12:14:46.583Z,1003.27
2018-01-19T12:16:50.416Z,1003.29
2018-01-19T12:17:50.432Z,1003.27
2018-01-19T12:19:43.567Z,1003.30
2018-01-19T12:20:43.570Z,1003.32
2018-01-19T12:22:36.732Z,1003.33
2018-01-19T12:23:36.732Z,1003.33
2018-01-19T12:25:29.890Z,1003.28
2018-01-19T12:26:29.955Z,1003.28
2018-01-19T12:28:23.133Z,1003.26
2018-01-19T12:29:23.143Z,1003.24
2018-01-19T12:31:16.288Z,1003.23
2018-01-19T12:32:16.307Z,1003.18
2018-01-19T12:34:09.527Z,1003.18
2018-01-19T12:35:09.520Z,1003.13
2018-01-19T12:37:02.687Z,1003.19
2018-01-19T12:38:02.681Z,1003.19
2018-01-19T12:39:55.829Z,1003.27
2018-01-19T12:40:55.835Z,1003.34
2018-01-19T12:42:49.001Z,1003.35
2018-01-19T12:43:48.997Z,1003.38
2018-01-19T12:45:42.128Z,1003.44
2018-01-19T12:46:42.142Z,1003.46
2018-01-19T12:48:35.322Z,1003.45
2018-01-19T12:49:35.319Z,1003.42
2018-01-19T12:51:28.570Z,1003.46
2018-01-19T12:52:28.569Z,1003.48
2018-01-19T12:54:21.729Z,1003.45
2018-01-19T12:55:21.733Z,1003.44
2018-01-19T12:57:15.000Z,1003.44
2018-01-19T12:58:14.903Z,1003.48
2018-01-19T13:00:08.030Z,1003.49
2018-01-19T13:01:08.035Z,1003.50
2018-01-19T13:03:17.526Z,1003.52
2018-01-19T13:04:17.550Z,1003.54
2018-01-19T13:06:10.701Z,1003.56
2018-01-19T13:07:10.697Z,1003.57
2018-01-19T13:09:03.863Z,1003.59
2018-01-19T13:10:03.861Z,1003.60
2018-01-19T13:11:57.001Z,1003.62
2018-01-19T13:12:57.021Z,1003.61
2018-01-19T13:14:50.243Z,1003.62
2018-01-19T13:15:50.226Z,1003.64
2018-01-19T13:17:59.736Z,1003.67
2018-01-19T13:18:59.746Z,1003.66
2018-01-19T13:20:52.985Z,1003.68
2018-01-19T13:21:52.993Z,1003.67
2018-01-19T13:23:46.194Z,1003.69
2018-01-19T13:24:46.223Z,1003.70
2018-01-19T13:26:39.330Z,1003.65
2018-01-19T13:27:39.342Z,1003.63
2018-01-19T13:29:32.527Z,1003.68
2018-01-19T13:30:32.499Z,1003.71
2018-01-19T13:32:25.636Z,1003.70
2018-01-19T13:33:25.646Z,1003.72
2018-01-19T13:35:18.825Z,1003.73
2018-01-19T13:36:18.829Z,1003.72
2018-01-19T13:38:12.079Z,1003.70
2018-01-19T13:39:12.080Z,1003.71
2018-01-19T13:41:05.241Z,1003.68
2018-01-19T13:42:05.270Z,1003.72
2018-01-19T13:43:58.426Z,1003.72
2018-01-19T13:44:59.160Z,1003.72
2018-01-19T13:46:51.601Z,1003.72
2018-01-19T13:47:51.600Z,1003.76
2018-01-19T13:49:44.760Z,1003.71
2018-01-19T13:50:44.761Z,1003.73
2018-01-19T13:52:37.966Z,1003.75
2018-01-19T13:53:37.973Z,1003.77
2018-01-19T13:55:31.126Z,1003.73
2018-01-19T13:56:31.126Z,1003.75
2018-01-19T13:58:24.271Z,1003.81
2018-01-19T13:59:24.288Z,1003.78
2018-01-19T14:01:17.433Z,1003.81
2018-01-19T14:02:17.473Z,1003.80
2018-01-19T14:04:10.610Z,1003.83
2018-01-19T14:05:10.600Z,1003.84
2018-01-19T14:07:03.775Z,1003.87
2018-01-19T14:08:03.784Z,1003.87
2018-01-19T14:09:57.032Z,1003.88
2018-01-19T14:10:57.024Z,1003.88
2018-01-19T14:12:50.169Z,1003.87
2018-01-19T14:13:50.185Z,1003.91
2018-01-19T14:15:43.349Z,1003.90
2018-01-19T14:16:43.343Z,1003.93
2018-01-19T14:18:36.509Z,1003.98
2018-01-19T14:19:36.507Z,1003.99
2018-01-19T14:21:29.673Z,1003.98
2018-01-19T14:22:29.664Z,1003.99
2018-01-19T14:24:22.808Z,1003.99
2018-01-19T14:25:22.857Z,1003.99
2018-01-19T14:27:28.319Z,1003.99
2018-01-19T14:28:28.420Z,1004.00
2018-01-19T14:30:21.539Z,1004.00
2018-01-19T14:31:21.541Z,1004.02
2018-01-19T14:33:14.695Z,1003.99
2018-01-19T14:34:14.712Z,1003.99
2018-01-19T14:36:07.864Z,1003.98
2018-01-19T14:37:07.864Z,1004.03
2018-01-19T14:39:01.036Z,1004.02
2018-01-19T14:40:01.017Z,1004.03
2018-01-19T14:41:54.219Z,1004.04
2018-01-19T14:42:54.208Z,1004.03
2018-01-19T14:44:47.547Z,1004.07
2018-01-19T14:45:47.534Z,1004.04
2018-01-19T14:47:40.691Z,1004.03
2018-01-19T14:48:40.767Z,1004.07
2018-01-19T14:50:33.865Z,1004.03
2018-01-19T14:51:33.898Z,1004.02
2018-01-19T14:53:27.034Z,1004.10
2018-01-19T14:54:27.043Z,1004.07
2018-01-19T14:56:20.210Z,1004.10
2018-01-19T14:57:20.216Z,1004.14
2018-01-19T14:59:12.364Z,1004.18
2018-01-19T15:00:12.392Z,1004.21
2018-01-19T15:02:04.577Z,1004.20
2018-01-19T15:03:04.568Z,1004.24
2018-01-19T15:04:58.069Z,1004.26
2018-01-19T15:05:57.830Z,1004.28
2018-01-19T15:07:50.895Z,1004.27
2018-01-19T15:08:50.912Z,1004.26
2018-01-19T15:10:44.137Z,1004.29
2018-01-19T15:11:44.160Z,1004.32
2018-01-19T15:13:37.244Z,1004.34
2018-01-19T15:14:37.262Z,1004.33
2018-01-19T15:16:30.430Z,1004.38
2018-01-19T15:17:30.432Z,1004.36
2018-01-19T15:19:23.571Z,1004.34
2018-01-19T15:20:23.591Z,1004.34
2018-01-19T15:22:16.735Z,1004.32
2018-01-19T15:23:16.737Z,1004.37
2018-01-19T15:25:09.903Z,1004.35
2018-01-19T15:26:09.915Z,1004.37
2018-01-19T15:28:03.082Z,1004.38
2018-01-19T15:29:03.086Z,1004.41
2018-01-19T15:31:14.716Z,1004.41
2018-01-19T15:32:14.725Z,1004.42
2018-01-19T15:34:07.913Z,1004.41
2018-01-19T15:35:07.936Z,1004.38
2018-01-19T15:37:01.063Z,1004.41
2018-01-19T15:38:01.081Z,1004.38
2018-01-19T15:39:53.253Z,1004.46
2018-01-19T15:40:53.258Z,1004.45
2018-01-19T15:43:02.811Z,1004.47
2018-01-19T15:44:02.807Z,1004.49
2018-01-19T15:45:55.741Z,1004.46
2018-01-19T15:46:55.747Z,1004.48
2018-01-19T15:48:47.954Z,1004.44
2018-01-19T15:49:47.882Z,1004.42
2018-01-19T15:51:41.078Z,1004.44
2018-01-19T15:52:41.092Z,1004.45
2018-01-19T15:54:34.240Z,1004.40
2018-01-19T15:55:34.254Z,1004.38
2018-01-19T15:57:27.553Z,1004.42
2018-01-19T15:58:27.412Z,1004.43
2018-01-19T16:00:20.618Z,1004.45
2018-01-19T16:01:20.622Z,1004.46
2018-01-19T16:03:13.711Z,1004.46
2018-01-19T16:04:13.726Z,1004.44
2018-01-19T16:06:06.882Z,1004.42
2018-01-19T16:07:06.880Z,1004.43
2018-01-19T16:09:00.031Z,1004.38
2018-01-19T16:10:00.045Z,1004.43
2018-01-19T16:11:53.215Z,1004.38
2018-01-19T16:12:53.228Z,1004.35
2018-01-19T16:14:46.392Z,1004.37
2018-01-19T16:15:46.389Z,1004.42
2018-01-19T16:17:55.895Z,1004.41
2018-01-19T16:18:55.924Z,1004.40
2018-01-19T16:20:49.132Z,1004.39
2018-01-19T16:21:49.153Z,1004.39
2018-01-19T16:23:42.204Z,1004.39
2018-01-19T16:24:42.229Z,1004.37
2018-01-19T16:26:35.409Z,1004.39
2018-01-19T16:27:35.407Z,1004.42
2018-01-19T16:29:28.582Z,1004.39
2018-01-19T16:30:28.574Z,1004.39
2018-01-19T16:32:21.698Z,1004.39
2018-01-19T16:33:21.710Z,1004.39
2018-01-19T16:35:14.859Z,1004.41
2018-01-19T16:36:14.861Z,1004.47
2018-01-19T16:38:08.001Z,1004.41
2018-01-19T16:39:08.018Z,1004.40
2018-01-19T16:41:01.192Z,1004.46
2018-01-19T16:42:01.215Z,1004.43
2018-01-19T16:43:54.384Z,1004.45
2018-01-19T16:44:54.379Z,1004.46
2018-01-19T16:46:59.911Z,1004.48
2018-01-19T16:47:59.896Z,1004.52
2018-01-19T16:49:52.256Z,1004.50
2018-01-19T16:50:52.241Z,1004.49
2018-01-19T16:52:45.386Z,1004.52
2018-01-19T16:53:45.422Z,1004.52
2018-01-19T16:55:39.303Z,1004.52
2018-01-19T16:56:38.649Z,1004.51
2018-01-19T16:58:30.883Z,1004.49
2018-01-19T16:59:30.959Z,1004.48
2018-01-19T17:01:24.055Z,1004.50
2018-01-19T17:02:24.053Z,1004.53
2018-01-19T17:04:17.257Z,1004.55
2018-01-19T17:05:17.245Z,1004.61
2018-01-19T17:07:10.406Z,1004.61
2018-01-19T17:08:10.409Z,1004.62
2018-01-19T17:10:02.590Z,1004.63
2018-01-19T17:11:02.586Z,1004.63
2018-01-19T17:12:55.747Z,1004.62
2018-01-19T17:13:55.758Z,1004.57
2018-01-19T17:15:48.908Z,1004.62
2018-01-19T17:16:48.938Z,1004.65
2018-01-19T17:18:42.051Z,1004.67
2018-01-19T17:19:42.077Z,1004.67
2018-01-19T17:21:34.470Z,1004.69
2018-01-19T17:22:34.333Z,1004.70
2018-01-19T17:24:26.544Z,1004.69
2018-01-19T17:25:26.540Z,1004.69
2018-01-19T17:27:19.751Z,1004.67
2018-01-19T17:28:19.694Z,1004.73
2018-01-19T17:30:25.348Z,1004.71
2018-01-19T17:31:25.350Z,1004.69
2018-01-19T17:33:18.540Z,1004.71
2018-01-19T17:34:18.518Z,1004.75
2018-01-19T17:36:11.686Z,1004.71
2018-01-19T17:37:11.678Z,1004.71
2018-01-19T17:39:04.922Z,1004.69
2018-01-19T17:40:04.932Z,1004.69
2018-01-19T17:41:58.187Z,1004.71
2018-01-19T17:42:58.202Z,1004.73
2018-01-19T17:44:51.417Z,1004.75
2018-01-19T17:45:51.430Z,1004.73
2018-01-19T17:47:43.616Z,1004.68
2018-01-19T17:48:43.595Z,1004.71